Terminal Aerodrome Forecast
Issued by NWS Upton, NY

Home | Current Version | Previous Version | Text Only | Print | Product List | Glossary On
Versions: 1 2 3 4 5 6 7 8 9 10 11 12 13 14 15 16 17 18 19 20 21 22 23 24 25 26 27 28 29 30 31 32 33 34 35
148
FTUS41 KOKX 231648 AAC
TAFEWR
TAF AMD
KEWR 231648Z 2317/2418 33013G20KT P6SM SCT020 BKN050
     FM231800 34013G19KT P6SM FEW020 SCT050
     FM232300 31010KT P6SM FEW250
     FM240700 33006KT P6SM SKC
     FM241400 36008KT P6SM SKC
     FM241700 VRB04KT P6SM SKC=

USA.gov is the U.S. government's official web portal to all federal, state and local government web resources and services.